sensor_id;sensor_type;location;lat;lon;timestamp;pressure;altitude;pressure_sealevel;temperature;humidity
71974;BME280;59840;52.122;5.404;2023-06-22T00:02:26;102072.44;;;16.82;91.43
71974;BME280;59840;52.122;5.404;2023-06-22T00:04:53;102075.66;;;16.84;91.79
71974;BME280;59840;52.122;5.404;2023-06-22T00:07:19;102076.19;;;16.86;91.68
71974;BME280;59840;52.122;5.404;2023-06-22T00:09:46;102078.06;;;16.85;91.71
71974;BME280;59840;52.122;5.404;2023-06-22T00:12:13;102088.41;;;16.82;91.43
71974;BME280;59840;52.122;5.404;2023-06-22T00:14:39;102087.31;;;16.78;91.47
71974;BME280;59840;52.122;5.404;2023-06-22T00:17:06;102076.91;;;16.76;91.46
71974;BME280;59840;52.122;5.404;2023-06-22T00:19:33;102069.88;;;16.65;91.14
71974;BME280;59840;52.122;5.404;2023-06-22T00:22:02;102074.13;;;16.61;90.92
71974;BME280;59840;52.122;5.404;2023-06-22T00:24:30;102078.09;;;16.58;91.76
71974;BME280;59840;52.122;5.404;2023-06-22T00:26:56;102083.41;;;16.58;92.07
71974;BME280;59840;52.122;5.404;2023-06-22T00:29:23;102078.91;;;16.59;91.77
71974;BME280;59840;52.122;5.404;2023-06-22T00:31:51;102073.81;;;16.57;92.30
71974;BME280;59840;52.122;5.404;2023-06-22T00:34:18;102063.06;;;16.47;93.10
71974;BME280;59840;52.122;5.404;2023-06-22T00:36:44;102065.19;;;16.45;92.76
71974;BME280;59840;52.122;5.404;2023-06-22T00:39:12;102065.94;;;16.40;93.42
71974;BME280;59840;52.122;5.404;2023-06-22T00:41:38;102062.47;;;16.40;93.13
71974;BME280;59840;52.122;5.404;2023-06-22T00:44:05;102056.13;;;16.46;92.58
71974;BME280;59840;52.122;5.404;2023-06-22T00:46:33;102062.56;;;16.50;92.54
71974;BME280;59840;52.122;5.404;2023-06-22T00:49:00;102060.44;;;16.52;92.25
71974;BME280;59840;52.122;5.404;2023-06-22T00:51:26;102063.06;;;16.47;91.52
71974;BME280;59840;52.122;5.404;2023-06-22T00:53:54;102053.13;;;16.37;91.81
71974;BME280;59840;52.122;5.404;2023-06-22T00:56:23;102057.09;;;16.35;92.07
71974;BME280;59840;52.122;5.404;2023-06-22T00:58:51;102058.19;;;16.39;91.76
71974;BME280;59840;52.122;5.404;2023-06-22T01:01:19;102058.50;;;16.42;91.30
71974;BME280;59840;52.122;5.404;2023-06-22T01:03:50;102055.56;;;16.44;90.98
71974;BME280;59840;52.122;5.404;2023-06-22T01:06:24;102045.16;;;16.42;90.57
71974;BME280;59840;52.122;5.404;2023-06-22T01:09:02;102047.47;;;16.34;90.52
71974;BME280;59840;52.122;5.404;2023-06-22T01:11:39;102049.03;;;16.25;90.98
71974;BME280;59840;52.122;5.404;2023-06-22T01:14:23;102056.47;;;16.23;91.23
71974;BME280;59840;52.122;5.404;2023-06-22T01:16:51;102059.38;;;16.21;91.20
71974;BME280;59840;52.122;5.404;2023-06-22T01:19:44;102071.69;;;16.27;91.43
71974;BME280;59840;52.122;5.404;2023-06-22T01:22:15;102063.94;;;16.26;91.46
71974;BME280;59840;52.122;5.404;2023-06-22T01:25:20;102057.75;;;16.20;90.62
71974;BME280;59840;52.122;5.404;2023-06-22T01:30:17;102056.84;;;15.83;92.80
71974;BME280;59840;52.122;5.404;2023-06-22T01:32:45;102051.53;;;15.83;93.41
71974;BME280;59840;52.122;5.404;2023-06-22T01:35:14;102052.94;;;15.90;93.20
71974;BME280;59840;52.122;5.404;2023-06-22T01:37:42;102057.22;;;15.91;92.84
71974;BME280;59840;52.122;5.404;2023-06-22T01:40:09;102049.47;;;15.90;92.98
71974;BME280;59840;52.122;5.404;2023-06-22T01:42:37;102054.78;;;15.90;92.69
71974;BME280;59840;52.122;5.404;2023-06-22T01:45:05;102056.66;;;15.89;91.48
71974;BME280;59840;52.122;5.404;2023-06-22T01:47:33;102058.94;;;15.81;91.03
71974;BME280;59840;52.122;5.404;2023-06-22T01:50:00;102048.50;;;15.74;91.85
71974;BME280;59840;52.122;5.404;2023-06-22T01:52:27;102046.38;;;15.76;92.09
71974;BME280;59840;52.122;5.404;2023-06-22T01:54:54;102041.69;;;15.83;92.30
71974;BME280;59840;52.122;5.404;2023-06-22T01:57:21;102045.75;;;15.69;93.43
71974;BME280;59840;52.122;5.404;2023-06-22T02:00:05;102048.34;;;15.64;93.53
71974;BME280;59840;52.122;5.404;2023-06-22T02:02:40;102047.25;;;15.60;93.19
71974;BME280;59840;52.122;5.404;2023-06-22T02:05:09;102047.25;;;15.60;92.69
71974;BME280;59840;52.122;5.404;2023-06-22T02:07:46;102047.75;;;15.57;92.94
71974;BME280;59840;52.122;5.404;2023-06-22T02:10:17;102039.19;;;15.55;92.24
71974;BME280;59840;52.122;5.404;2023-06-22T02:12:47;102035.97;;;15.53;92.25
71974;BME280;59840;52.122;5.404;2023-06-22T02:15:15;102034.63;;;15.50;92.95
71974;BME280;59840;52.122;5.404;2023-06-22T02:17:42;102035.97;;;15.53;92.69
71974;BME280;59840;52.122;5.404;2023-06-22T02:20:13;102042.09;;;15.53;92.76
71974;BME280;59840;52.122;5.404;2023-06-22T02:22:40;102038.06;;;15.51;92.80
71974;BME280;59840;52.122;5.404;2023-06-22T02:25:07;102038.88;;;15.51;92.62
71974;BME280;59840;52.122;5.404;2023-06-22T02:27:34;102033.75;;;15.45;92.90
71974;BME280;59840;52.122;5.404;2023-06-22T02:30:00;102028.28;;;15.34;92.83
71974;BME280;59840;52.122;5.404;2023-06-22T02:32:27;102030.38;;;15.32;93.24
71974;BME280;59840;52.122;5.404;2023-06-22T02:34:54;102035.94;;;15.31;93.70
71974;BME280;59840;52.122;5.404;2023-06-22T02:37:20;102038.84;;;15.29;93.28
71974;BME280;59840;52.122;5.404;2023-06-22T02:39:52;102038.53;;;15.26;93.50
71974;BME280;59840;52.122;5.404;2023-06-22T02:42:18;102039.06;;;15.23;93.77
71974;BME280;59840;52.122;5.404;2023-06-22T02:44:47;102037.44;;;15.22;93.38
71974;BME280;59840;52.122;5.404;2023-06-22T02:47:15;102036.41;;;15.23;92.91
71974;BME280;59840;52.122;5.404;2023-06-22T02:49:42;102025.75;;;15.23;92.77
71974;BME280;59840;52.122;5.404;2023-06-22T02:52:11;102030.13;;;15.12;93.55
71974;BME280;59840;52.122;5.404;2023-06-22T02:54:38;102026.28;;;15.03;94.22
71974;BME280;59840;52.122;5.404;2023-06-22T02:57:04;102025.63;;;14.96;94.30
71974;BME280;59840;52.122;5.404;2023-06-22T02:59:31;102019.84;;;14.99;94.44
71974;BME280;59840;52.122;5.404;2023-06-22T03:02:00;102024.03;;;14.95;94.03
71974;BME280;59840;52.122;5.404;2023-06-22T03:04:27;102033.63;;;14.96;94.13
71974;BME280;59840;52.122;5.404;2023-06-22T03:06:53;102024.59;;;14.97;94.12
71974;BME280;59840;52.122;5.404;2023-06-22T03:09:20;102034.66;;;14.95;93.78
71974;BME280;59840;52.122;5.404;2023-06-22T03:11:47;102024.50;;;14.92;94.20
71974;BME280;59840;52.122;5.404;2023-06-22T03:14:13;102035.16;;;14.92;94.42
71974;BME280;59840;52.122;5.404;2023-06-22T03:16:40;102031.78;;;14.80;95.14
71974;BME280;59840;52.122;5.404;2023-06-22T03:19:07;102034.53;;;14.85;95.09
71974;BME280;59840;52.122;5.404;2023-06-22T03:21:34;102033.50;;;14.86;94.38
71974;BME280;59840;52.122;5.404;2023-06-22T03:24:01;102028.97;;;14.86;93.84
71974;BME280;59840;52.122;5.404;2023-06-22T03:26:27;102027.53;;;14.79;94.14
71974;BME280;59840;52.122;5.404;2023-06-22T03:28:54;102034.84;;;14.71;94.34
71974;BME280;59840;52.122;5.404;2023-06-22T03:31:22;102022.44;;;14.60;95.15
71974;BME280;59840;52.122;5.404;2023-06-22T03:33:49;102009.88;;;14.56;95.72
71974;BME280;59840;52.122;5.404;2023-06-22T03:36:19;102013.44;;;14.61;95.91
71974;BME280;59840;52.122;5.404;2023-06-22T03:38:47;102004.50;;;14.67;95.85
71974;BME280;59840;52.122;5.404;2023-06-22T03:41:14;101999.28;;;14.72;95.88
71974;BME280;59840;52.122;5.404;2023-06-22T03:43:41;102007.00;;;14.74;95.77
71974;BME280;59840;52.122;5.404;2023-06-22T03:46:08;102013.69;;;14.77;95.43
71974;BME280;59840;52.122;5.404;2023-06-22T03:48:35;102006.28;;;14.79;95.82
71974;BME280;59840;52.122;5.404;2023-06-22T03:51:02;102007.97;;;14.85;95.48
71974;BME280;59840;52.122;5.404;2023-06-22T03:53:32;102001.84;;;14.84;94.93
71974;BME280;59840;52.122;5.404;2023-06-22T03:55:58;101997.97;;;14.75;94.63
71974;BME280;59840;52.122;5.404;2023-06-22T03:58:25;102008.78;;;14.68;95.23
71974;BME280;59840;52.122;5.404;2023-06-22T04:00:52;102004.25;;;14.69;95.67
71974;BME280;59840;52.122;5.404;2023-06-22T04:03:19;102005.06;;;14.69;96.22
71974;BME280;59840;52.122;5.404;2023-06-22T04:05:47;102004.91;;;14.76;96.74
71974;BME280;59840;52.122;5.404;2023-06-22T04:08:14;102000.16;;;14.78;96.67
71974;BME280;59840;52.122;5.404;2023-06-22T04:10:41;101998.94;;;14.86;96.74
71974;BME280;59840;52.122;5.404;2023-06-22T04:13:08;101997.13;;;14.91;96.52
71974;BME280;59840;52.122;5.404;2023-06-22T04:15:35;101990.34;;;15.00;96.46
71974;BME280;59840;52.122;5.404;2023-06-22T04:18:01;101988.41;;;15.13;96.72
71974;BME280;59840;52.122;5.404;2023-06-22T04:20:28;101983.63;;;15.36;96.50
71974;BME280;59840;52.122;5.404;2023-06-22T04:22:55;101987.53;;;15.51;96.95
71974;BME280;59840;52.122;5.404;2023-06-22T04:25:22;101992.47;;;15.59;97.48
71974;BME280;59840;52.122;5.404;2023-06-22T04:27:49;101988.03;;;15.69;97.38
71974;BME280;59840;52.122;5.404;2023-06-22T04:30:16;101985.78;;;15.83;97.20
71974;BME280;59840;52.122;5.404;2023-06-22T04:32:44;101979.03;;;16.02;97.05
71974;BME280;59840;52.122;5.404;2023-06-22T04:35:11;101977.56;;;16.17;96.92
71974;BME280;59840;52.122;5.404;2023-06-22T04:37:38;101976.88;;;16.26;97.38
71974;BME280;59840;52.122;5.404;2023-06-22T04:40:06;101981.66;;;16.29;97.40
71974;BME280;59840;52.122;5.404;2023-06-22T04:42:34;101982.78;;;16.38;97.83
71974;BME280;59840;52.122;5.404;2023-06-22T04:45:03;101978.34;;;16.49;98.73
71974;BME280;59840;52.122;5.404;2023-06-22T04:47:30;101985.38;;;16.60;99.15
71974;BME280;59840;52.122;5.404;2023-06-22T04:49:57;101985.69;;;16.69;98.83
71974;BME280;59840;52.122;5.404;2023-06-22T04:52:24;101991.38;;;16.78;99.05
71974;BME280;59840;52.122;5.404;2023-06-22T04:54:51;101981.56;;;16.88;99.73
71974;BME280;59840;52.122;5.404;2023-06-22T04:57:22;101990.44;;;17.04;98.85
71974;BME280;59840;52.122;5.404;2023-06-22T04:59:59;101990.50;;;17.14;98.16
71974;BME280;59840;52.122;5.404;2023-06-22T05:02:39;101992.41;;;17.24;98.06
71974;BME280;59840;52.122;5.404;2023-06-22T05:05:07;101991.63;;;17.28;97.80
71974;BME280;59840;52.122;5.404;2023-06-22T05:07:34;101987.91;;;17.29;98.41
71974;BME280;59840;52.122;5.404;2023-06-22T05:10:02;101992.16;;;17.35;98.37
71974;BME280;59840;52.122;5.404;2023-06-22T05:12:30;101997.00;;;17.43;97.29
71974;BME280;59840;52.122;5.404;2023-06-22T05:14:57;101996.78;;;17.50;96.75
71974;BME280;59840;52.122;5.404;2023-06-22T05:17:24;101987.44;;;17.53;97.18
71974;BME280;59840;52.122;5.404;2023-06-22T05:19:52;101996.81;;;17.60;97.31
71974;BME280;59840;52.122;5.404;2023-06-22T05:22:19;101990.47;;;17.66;97.38
71974;BME280;59840;52.122;5.404;2023-06-22T05:24:46;101993.16;;;17.82;97.45
71974;BME280;59840;52.122;5.404;2023-06-22T05:27:13;101991.81;;;17.89;97.27
71974;BME280;59840;52.122;5.404;2023-06-22T05:29:41;101993.19;;;17.97;97.44
71974;BME280;59840;52.122;5.404;2023-06-22T05:32:09;101990.78;;;18.00;96.97
71974;BME280;59840;52.122;5.404;2023-06-22T05:34:36;101987.03;;;18.01;97.13
71974;BME280;59840;52.122;5.404;2023-06-22T05:37:03;101993.44;;;18.05;98.04
71974;BME280;59840;52.122;5.404;2023-06-22T05:39:30;101998.50;;;18.12;97.29
71974;BME280;59840;52.122;5.404;2023-06-22T05:41:56;101989.16;;;18.15;96.40
71974;BME280;59840;52.122;5.404;2023-06-22T05:44:23;101999.31;;;18.18;97.74
71974;BME280;59840;52.122;5.404;2023-06-22T05:46:50;102000.94;;;18.14;97.62
71974;BME280;59840;52.122;5.404;2023-06-22T05:49:16;101996.66;;;18.13;96.94
71974;BME280;59840;52.122;5.404;2023-06-22T05:51:43;102004.94;;;18.21;96.95
71974;BME280;59840;52.122;5.404;2023-06-22T05:54:10;102000.66;;;18.25;97.20
71974;BME280;59840;52.122;5.404;2023-06-22T05:56:37;102002.28;;;18.31;97.52
71974;BME280;59840;52.122;5.404;2023-06-22T05:59:04;101999.31;;;18.43;97.79
71974;BME280;59840;52.122;5.404;2023-06-22T06:01:31;102001.19;;;18.58;97.33
71974;BME280;59840;52.122;5.404;2023-06-22T06:04:02;102007.03;;;18.80;96.36
71974;BME280;59840;52.122;5.404;2023-06-22T06:06:30;102005.94;;;19.01;96.74
71974;BME280;59840;52.122;5.404;2023-06-22T06:08:57;101996.81;;;19.07;94.86
71974;BME280;59840;52.122;5.404;2023-06-22T06:11:25;102004.53;;;19.14;95.08
71974;BME280;59840;52.122;5.404;2023-06-22T06:13:52;101994.91;;;19.13;93.54
71974;BME280;59840;52.122;5.404;2023-06-22T06:16:18;101993.03;;;19.19;94.03
71974;BME280;59840;52.122;5.404;2023-06-22T06:18:45;101987.63;;;19.34;94.24
71974;BME280;59840;52.122;5.404;2023-06-22T06:21:12;101993.22;;;19.37;90.96
71974;BME280;59840;52.122;5.404;2023-06-22T06:23:38;101987.56;;;19.44;93.43
71974;BME280;59840;52.122;5.404;2023-06-22T06:26:05;101988.59;;;19.48;90.80
71974;BME280;59840;52.122;5.404;2023-06-22T06:28:34;101996.13;;;19.51;90.60
71974;BME280;59840;52.122;5.404;2023-06-22T06:31:00;101985.13;;;19.58;89.79
71974;BME280;59840;52.122;5.404;2023-06-22T06:33:27;101985.09;;;19.63;91.28
71974;BME280;59840;52.122;5.404;2023-06-22T06:35:53;101987.19;;;19.71;90.61
71974;BME280;59840;52.122;5.404;2023-06-22T06:38:22;101970.25;;;19.75;88.94
71974;BME280;59840;52.122;5.404;2023-06-22T06:40:48;101978.00;;;19.82;89.19
71974;BME280;59840;52.122;5.404;2023-06-22T06:43:15;101980.09;;;19.90;88.31
71974;BME280;59840;52.122;5.404;2023-06-22T06:45:41;101975.25;;;19.92;89.77
71974;BME280;59840;52.122;5.404;2023-06-22T06:48:08;101969.56;;;19.99;88.56
71974;BME280;59840;52.122;5.404;2023-06-22T06:50:36;101965.03;;;19.99;88.49
71974;BME280;59840;52.122;5.404;2023-06-22T06:53:02;101962.81;;;20.06;89.77
71974;BME280;59840;52.122;5.404;2023-06-22T06:55:29;101975.88;;;20.13;87.95
71974;BME280;59840;52.122;5.404;2023-06-22T06:57:59;101961.91;;;20.16;87.87
71974;BME280;59840;52.122;5.404;2023-06-22T07:00:26;101967.75;;;20.23;86.47
71974;BME280;59840;52.122;5.404;2023-06-22T07:02:53;101965.31;;;20.27;86.72
71974;BME280;59840;52.122;5.404;2023-06-22T07:05:20;101959.44;;;20.25;86.35
71974;BME280;59840;52.122;5.404;2023-06-22T07:07:46;101968.47;;;20.34;87.19
71974;BME280;59840;52.122;5.404;2023-06-22T07:10:13;101961.50;;;20.38;85.44
71974;BME280;59840;52.122;5.404;2023-06-22T07:12:41;101952.34;;;20.44;85.75
71974;BME280;59840;52.122;5.404;2023-06-22T07:15:09;101956.53;;;20.50;86.36
71974;BME280;59840;52.122;5.404;2023-06-22T07:17:37;101955.75;;;20.50;84.91
71974;BME280;59840;52.122;5.404;2023-06-22T07:20:04;101952.44;;;20.58;85.56
71974;BME280;59840;52.122;5.404;2023-06-22T07:22:35;101963.38;;;20.66;83.65
71974;BME280;59840;52.122;5.404;2023-06-22T07:25:01;101960.59;;;20.77;83.52
71974;BME280;59840;52.122;5.404;2023-06-22T07:27:31;101964.22;;;20.86;83.53
71974;BME280;59840;52.122;5.404;2023-06-22T07:30:02;101961.94;;;20.98;83.51
71974;BME280;59840;52.122;5.404;2023-06-22T07:32:29;101960.78;;;21.04;82.25
71974;BME280;59840;52.122;5.404;2023-06-22T07:34:55;101959.13;;;21.08;81.61
71974;BME280;59840;52.122;5.404;2023-06-22T07:37:22;101959.13;;;21.08;80.86
71974;BME280;59840;52.122;5.404;2023-06-22T07:39:48;101960.22;;;21.07;79.04
71974;BME280;59840;52.122;5.404;2023-06-22T07:42:16;101949.72;;;21.11;79.02
71974;BME280;59840;52.122;5.404;2023-06-22T07:44:45;101945.06;;;21.16;78.05
71974;BME280;59840;52.122;5.404;2023-06-22T07:47:11;101939.38;;;21.23;79.13
71974;BME280;59840;52.122;5.404;2023-06-22T07:49:38;101939.53;;;21.31;78.28
71974;BME280;59840;52.122;5.404;2023-06-22T07:52:05;101932.78;;;21.34;78.95
71974;BME280;59840;52.122;5.404;2023-06-22T07:54:33;101931.91;;;21.38;78.63
71974;BME280;59840;52.122;5.404;2023-06-22T07:56:59;101938.09;;;21.39;77.43
71974;BME280;59840;52.122;5.404;2023-06-22T07:59:26;101937.78;;;21.40;76.75
71974;BME280;59840;52.122;5.404;2023-06-22T08:01:53;101929.97;;;21.44;77.43
71974;BME280;59840;52.122;5.404;2023-06-22T08:04:20;101921.72;;;21.54;79.76
71974;BME280;59840;52.122;5.404;2023-06-22T08:06:47;101926.38;;;21.67;78.00
71974;BME280;59840;52.122;5.404;2023-06-22T08:09:13;101925.44;;;21.77;77.31
71974;BME280;59840;52.122;5.404;2023-06-22T08:11:40;101908.31;;;21.87;75.65
71974;BME280;59840;52.122;5.404;2023-06-22T08:14:06;101915.72;;;21.95;74.57
71974;BME280;59840;52.122;5.404;2023-06-22T08:16:33;101910.00;;;22.01;76.47
71974;BME280;59840;52.122;5.404;2023-06-22T08:18:59;101906.06;;;22.13;75.75
71974;BME280;59840;52.122;5.404;2023-06-22T08:21:26;101904.16;;;22.27;74.09
71974;BME280;59840;52.122;5.404;2023-06-22T08:23:53;101906.09;;;22.40;72.43
71974;BME280;59840;52.122;5.404;2023-06-22T08:26:20;101910.88;;;22.43;71.62
71974;BME280;59840;52.122;5.404;2023-06-22T08:28:47;101898.59;;;22.37;72.59
71974;BME280;59840;52.122;5.404;2023-06-22T08:31:16;101886.97;;;22.42;72.08
71974;BME280;59840;52.122;5.404;2023-06-22T08:33:42;101883.69;;;22.45;72.13
71974;BME280;59840;52.122;5.404;2023-06-22T08:36:15;101883.75;;;22.53;73.01
71974;BME280;59840;52.122;5.404;2023-06-22T08:38:42;101881.88;;;22.54;71.58
71974;BME280;59840;52.122;5.404;2023-06-22T08:41:09;101874.28;;;22.56;70.30
71974;BME280;59840;52.122;5.404;2023-06-22T08:43:35;101877.97;;;22.60;69.42
71974;BME280;59840;52.122;5.404;2023-06-22T08:46:02;101869.22;;;22.68;69.98
71974;BME280;59840;52.122;5.404;2023-06-22T08:48:29;101875.00;;;22.75;68.00
71974;BME280;59840;52.122;5.404;2023-06-22T08:50:55;101870.22;;;22.86;68.13
71974;BME280;59840;52.122;5.404;2023-06-22T08:53:22;101865.97;;;23.07;68.37
71974;BME280;59840;52.122;5.404;2023-06-22T08:55:48;101868.94;;;23.19;65.54
71974;BME280;59840;52.122;5.404;2023-06-22T08:58:17;101863.41;;;23.24;63.84
71974;BME280;59840;52.122;5.404;2023-06-22T09:00:44;101860.31;;;23.31;64.80
71974;BME280;59840;52.122;5.404;2023-06-22T09:03:11;101864.28;;;23.33;64.57
71974;BME280;59840;52.122;5.404;2023-06-22T09:05:38;101862.09;;;23.35;63.77
71974;BME280;59840;52.122;5.404;2023-06-22T09:08:05;101861.59;;;23.33;63.60
71974;BME280;59840;52.122;5.404;2023-06-22T09:10:31;101864.66;;;23.40;64.26
71974;BME280;59840;52.122;5.404;2023-06-22T09:12:58;101856.28;;;23.42;63.50
71974;BME280;59840;52.122;5.404;2023-06-22T09:15:25;101858.69;;;23.44;62.31
71974;BME280;59840;52.122;5.404;2023-06-22T09:17:51;101863.06;;;23.53;61.03
71974;BME280;59840;52.122;5.404;2023-06-22T09:20:20;101854.22;;;23.61;59.88
71974;BME280;59840;52.122;5.404;2023-06-22T09:22:47;101854.88;;;23.67;60.25
71974;BME280;59840;52.122;5.404;2023-06-22T09:25:14;101860.22;;;23.81;58.41
71974;BME280;59840;52.122;5.404;2023-06-22T09:27:40;101858.94;;;23.78;59.84
71974;BME280;59840;52.122;5.404;2023-06-22T09:30:07;101857.69;;;23.84;60.03
71974;BME280;59840;52.122;5.404;2023-06-22T09:32:34;101857.78;;;24.01;60.33
71974;BME280;59840;52.122;5.404;2023-06-22T09:35:04;101854.03;;;24.11;59.90
71974;BME280;59840;52.122;5.404;2023-06-22T09:37:35;101852.16;;;24.20;60.37
71974;BME280;59840;52.122;5.404;2023-06-22T09:40:02;101856.34;;;24.35;60.21
71974;BME280;59840;52.122;5.404;2023-06-22T09:42:34;101858.56;;;24.33;59.02
71974;BME280;59840;52.122;5.404;2023-06-22T09:45:01;101845.28;;;24.45;56.58
71974;BME280;59840;52.122;5.404;2023-06-22T09:47:29;101844.34;;;24.50;57.42
71974;BME280;59840;52.122;5.404;2023-06-22T09:49:55;101845.91;;;24.42;56.46
71974;BME280;59840;52.122;5.404;2023-06-22T09:52:22;101845.44;;;24.40;57.24
71974;BME280;59840;52.122;5.404;2023-06-22T09:54:56;101839.81;;;24.28;56.98
71974;BME280;59840;52.122;5.404;2023-06-22T09:57:22;101838.56;;;24.25;57.67
71974;BME280;59840;52.122;5.404;2023-06-22T09:59:49;101838.06;;;24.23;57.27
71974;BME280;59840;52.122;5.404;2023-06-22T10:02:16;101843.41;;;24.15;58.13
71974;BME280;59840;52.122;5.404;2023-06-22T10:04:43;101833.88;;;24.09;59.71
71974;BME280;59840;52.122;5.404;2023-06-22T10:07:10;101836.69;;;24.03;58.89
71974;BME280;59840;52.122;5.404;2023-06-22T10:09:37;101846.31;;;23.96;60.12
71974;BME280;59840;52.122;5.404;2023-06-22T10:12:04;101843.78;;;23.91;60.89
71974;BME280;59840;52.122;5.404;2023-06-22T10:14:30;101850.91;;;23.87;60.18
71974;BME280;59840;52.122;5.404;2023-06-22T10:16:57;101843.44;;;23.84;58.03
71974;BME280;59840;52.122;5.404;2023-06-22T10:19:25;101840.88;;;23.79;59.55
71974;BME280;59840;52.122;5.404;2023-06-22T10:21:52;101834.81;;;23.73;58.93
71974;BME280;59840;52.122;5.404;2023-06-22T10:24:18;101840.81;;;23.70;57.57
71974;BME280;59840;52.122;5.404;2023-06-22T10:26:45;101834.94;;;23.68;57.70
71974;BME280;59840;52.122;5.404;2023-06-22T10:29:11;101842.81;;;23.64;59.09
71974;BME280;59840;52.122;5.404;2023-06-22T10:31:42;101834.56;;;23.61;58.61
71974;BME280;59840;52.122;5.404;2023-06-22T10:34:09;101837.88;;;23.58;58.35
71974;BME280;59840;52.122;5.404;2023-06-22T10:36:36;101839.31;;;23.55;60.61
71974;BME280;59840;52.122;5.404;2023-06-22T10:39:02;101846.91;;;23.53;59.55
71974;BME280;59840;52.122;5.404;2023-06-22T10:41:29;101838.03;;;23.53;59.02
71974;BME280;59840;52.122;5.404;2023-06-22T10:43:57;101835.81;;;23.55;60.55
71974;BME280;59840;52.122;5.404;2023-06-22T10:46:25;101839.31;;;23.55;60.70
71974;BME280;59840;52.122;5.404;2023-06-22T10:48:52;101838.50;;;23.55;60.63
71974;BME280;59840;52.122;5.404;2023-06-22T10:51:21;101842.78;;;23.56;60.56
71974;BME280;59840;52.122;5.404;2023-06-22T10:53:48;101842.78;;;23.56;60.76
71974;BME280;59840;52.122;5.404;2023-06-22T10:56:14;101841.66;;;23.57;58.09
71974;BME280;59840;52.122;5.404;2023-06-22T10:58:41;101840.56;;;23.58;57.55
71974;BME280;59840;52.122;5.404;2023-06-22T11:01:07;101838.97;;;23.57;58.23
71974;BME280;59840;52.122;5.404;2023-06-22T11:03:45;101835.66;;;23.60;58.15
71974;BME280;59840;52.122;5.404;2023-06-22T11:06:12;101842.03;;;23.64;58.18
71974;BME280;59840;52.122;5.404;2023-06-22T11:08:38;101841.13;;;23.68;60.02
71974;BME280;59840;52.122;5.404;2023-06-22T11:11:15;101831.50;;;23.76;59.77
71974;BME280;59840;52.122;5.404;2023-06-22T11:13:43;101830.88;;;23.79;58.25
71974;BME280;59840;52.122;5.404;2023-06-22T11:16:10;101828.97;;;23.80;60.39
71974;BME280;59840;52.122;5.404;2023-06-22T11:18:37;101822.34;;;23.86;59.89
71974;BME280;59840;52.122;5.404;2023-06-22T11:21:04;101828.38;;;23.91;61.11
71974;BME280;59840;52.122;5.404;2023-06-22T11:23:31;101823.78;;;23.92;58.95
71974;BME280;59840;52.122;5.404;2023-06-22T11:25:57;101828.06;;;23.93;58.98
71974;BME280;59840;52.122;5.404;2023-06-22T11:28:24;101821.75;;;23.97;59.58
71974;BME280;59840;52.122;5.404;2023-06-22T11:30:51;101820.66;;;23.98;61.54
71974;BME280;59840;52.122;5.404;2023-06-22T11:33:18;101819.84;;;23.98;61.91
71974;BME280;59840;52.122;5.404;2023-06-22T11:35:44;101815.13;;;24.03;62.00
71974;BME280;59840;52.122;5.404;2023-06-22T11:38:11;101809.13;;;24.06;62.73
71974;BME280;59840;52.122;5.404;2023-06-22T11:40:37;101805.63;;;24.06;62.01
71974;BME280;59840;52.122;5.404;2023-06-22T11:43:04;101799.13;;;24.07;62.95
71974;BME280;59840;52.122;5.404;2023-06-22T11:45:31;101803.09;;;24.10;63.49
71974;BME280;59840;52.122;5.404;2023-06-22T11:47:57;101794.84;;;24.06;61.77
71974;BME280;59840;52.122;5.404;2023-06-22T11:50:24;101797.22;;;24.08;62.92
71974;BME280;59840;52.122;5.404;2023-06-22T11:52:51;101796.13;;;24.09;62.57
71974;BME280;59840;52.122;5.404;2023-06-22T11:55:19;101793.41;;;24.09;63.79
71974;BME280;59840;52.122;5.404;2023-06-22T11:57:56;101793.09;;;24.10;62.35
71974;BME280;59840;52.122;5.404;2023-06-22T12:00:26;101788.81;;;24.09;63.93
71974;BME280;59840;52.122;5.404;2023-06-22T12:02:56;101784.22;;;24.10;64.32
71974;BME280;59840;52.122;5.404;2023-06-22T12:05:26;101782.31;;;24.10;64.15
71974;BME280;59840;52.122;5.404;2023-06-22T12:07:53;101790.41;;;24.10;63.61
71974;BME280;59840;52.122;5.404;2023-06-22T12:10:24;101780.88;;;24.04;63.40
71974;BME280;59840;52.122;5.404;2023-06-22T12:12:51;101785.47;;;24.03;63.05
71974;BME280;59840;52.122;5.404;2023-06-22T12:15:18;101784.97;;;24.01;64.55
71974;BME280;59840;52.122;5.404;2023-06-22T12:17:45;101780.38;;;24.02;64.50
71974;BME280;59840;52.122;5.404;2023-06-22T12:20:14;101771.31;;;23.98;64.85
71974;BME280;59840;52.122;5.404;2023-06-22T12:22:41;101783.53;;;23.95;63.89
71974;BME280;59840;52.122;5.404;2023-06-22T12:25:08;101774.00;;;23.89;64.91
71974;BME280;59840;52.122;5.404;2023-06-22T12:27:35;101771.94;;;23.86;63.94
71974;BME280;59840;52.122;5.404;2023-06-22T12:30:03;101775.38;;;23.78;67.42
71974;BME280;59840;52.122;5.404;2023-06-22T12:32:29;101768.34;;;23.68;67.35
71974;BME280;59840;52.122;5.404;2023-06-22T12:34:56;101766.22;;;23.57;68.70
71974;BME280;59840;52.122;5.404;2023-06-22T12:37:23;101765.00;;;23.40;70.95
71974;BME280;59840;52.122;5.404;2023-06-22T12:39:50;101762.38;;;23.27;71.89
71974;BME280;59840;52.122;5.404;2023-06-22T12:42:16;101768.84;;;23.17;71.55
71974;BME280;59840;52.122;5.404;2023-06-22T12:44:43;101758.97;;;23.13;73.04
71974;BME280;59840;52.122;5.404;2023-06-22T12:47:11;101760.56;;;23.14;72.34
71974;BME280;59840;52.122;5.404;2023-06-22T12:49:37;101756.09;;;23.09;71.13
71974;BME280;59840;52.122;5.404;2023-06-22T12:52:11;101751.31;;;23.06;72.11
71974;BME280;59840;52.122;5.404;2023-06-22T12:54:37;101754.13;;;23.01;72.42
71974;BME280;59840;52.122;5.404;2023-06-22T12:57:19;101753.44;;;22.95;72.21